createdAt,value
2023-05-19T00:02:06.190Z,101045.94
2023-05-19T00:05:10.534Z,101044.59
2023-05-19T00:08:16.581Z,101039.31
2023-05-19T00:11:19.439Z,101039.81
2023-05-19T00:14:29.275Z,101037.63
2023-05-19T00:17:34.453Z,101042.09
2023-05-19T00:20:38.420Z,101035.16
2023-05-19T00:23:41.180Z,101034.50
2023-05-19T00:26:43.678Z,101032.69
2023-05-19T00:29:46.291Z,101028.38
2023-05-19T00:32:49.102Z,101027.56
2023-05-19T00:35:51.783Z,101020.94
2023-05-19T00:38:54.348Z,101017.47
2023-05-19T00:41:56.933Z,101021.25
2023-05-19T00:44:59.522Z,101027.69
2023-05-19T00:48:02.350Z,101027.69
2023-05-19T00:51:06.704Z,101025.34
2023-05-19T00:54:09.691Z,101029.66
2023-05-19T00:57:14.039Z,101022.72
2023-05-19T01:00:16.938Z,101019.41
2023-05-19T01:03:20.930Z,101013.47
2023-05-19T01:06:23.585Z,101018.44
2023-05-19T01:09:26.203Z,101008.19
2023-05-19T01:12:29.216Z,101012.63
2023-05-19T01:15:41.870Z,101011.97
2023-05-19T01:18:51.182Z,101017.25
2023-05-19T01:22:31.066Z,101014.09
2023-05-19T01:25:57.891Z,101010.47
2023-05-19T01:29:26.670Z,101014.09
2023-05-19T01:32:30.191Z,101018.53
2023-05-19T01:35:38.472Z,101016.34
2023-05-19T01:38:41.184Z,101019.31
2023-05-19T01:41:44.844Z,101012.53
2023-05-19T01:44:47.843Z,101005.75
2023-05-19T01:47:54.133Z,101012.84
2023-05-19T01:50:59.154Z,101017.31
2023-05-19T01:54:01.819Z,101018.28
2023-05-19T01:57:11.825Z,101027.19
2023-05-19T02:00:42.702Z,101020.25
2023-05-19T02:03:59.778Z,101013.31
2023-05-19T02:07:09.480Z,101020.41
2023-05-19T02:10:19.930Z,101014.16
2023-05-19T02:13:24.734Z,101025.69
2023-05-19T02:16:29.099Z,101027.19
2023-05-19T02:19:34.334Z,101023.72
2023-05-19T02:22:36.977Z,101026.87
2023-05-19T02:25:39.589Z,101030.81
2023-05-19T02:28:42.232Z,101016.25
2023-05-19T02:31:44.955Z,101024.84
2023-05-19T02:34:48.621Z,101026.50
2023-05-19T02:37:51.764Z,101024.53
2023-05-19T02:40:54.452Z,101028.00
2023-05-19T02:43:57.001Z,101023.72
2023-05-19T02:46:59.551Z,101015.12
2023-05-19T02:50:02.260Z,101015.12
2023-05-19T02:53:04.985Z,101011.59
2023-05-19T02:56:07.570Z,100998.41
2023-05-19T02:59:10.255Z,101003.84
2023-05-19T03:02:12.902Z,101015.38
2023-05-19T03:05:16.611Z,101017.84
2023-05-19T03:08:19.839Z,101024.13
2023-05-19T03:11:23.463Z,101023.13
2023-05-19T03:14:26.044Z,101024.13
2023-05-19T03:17:33.874Z,101017.03
2023-05-19T03:20:36.521Z,101014.53
2023-05-19T03:23:39.153Z,101012.72
2023-05-19T03:26:42.278Z,101018.00
2023-05-19T03:29:44.890Z,101025.09
2023-05-19T03:32:52.308Z,101033.16
2023-05-19T03:35:54.993Z,101029.69
2023-05-19T03:38:58.313Z,101026.91
2023-05-19T03:42:00.959Z,101030.22
2023-05-19T03:45:03.923Z,101032.53
2023-05-19T03:48:06.850Z,101033.37
2023-05-19T03:51:09.803Z,101040.31
2023-05-19T03:54:12.671Z,101038.34
2023-05-19T03:57:15.371Z,101044.31
2023-05-19T04:00:19.052Z,101045.97
2023-05-19T04:03:21.700Z,101049.94
2023-05-19T04:06:27.712Z,101039.75
2023-05-19T04:09:32.194Z,101055.28
2023-05-19T04:12:34.855Z,101058.44
2023-05-19T04:15:37.566Z,101049.00
2023-05-19T04:18:40.439Z,101060.41
2023-05-19T04:21:43.044Z,101053.97
2023-05-19T04:24:46.555Z,101062.88
2023-05-19T04:27:49.228Z,101060.41
2023-05-19T04:30:52.133Z,101061.28
2023-05-19T04:33:54.935Z,101063.00
2023-05-19T04:36:57.675Z,101071.78
2023-05-19T04:40:00.251Z,101079.38
2023-05-19T04:43:02.886Z,101070.63
2023-05-19T04:46:06.492Z,101082.03
2023-05-19T04:49:09.278Z,101085.97
2023-05-19T04:52:12.786Z,101085.81
2023-05-19T04:55:16.097Z,101085.50
2023-05-19T04:58:19.932Z,101075.44
2023-05-19T05:01:26.359Z,101082.06
2023-05-19T05:04:29.215Z,101073.66
2023-05-19T05:07:34.759Z,101074.88
2023-05-19T05:10:37.380Z,101070.34
2023-05-19T05:13:40.379Z,101080.53
2023-05-19T05:16:43.763Z,101080.34
2023-05-19T05:19:46.681Z,101083.47
2023-05-19T05:22:49.775Z,101083.25
2023-05-19T05:25:55.935Z,101089.03
2023-05-19T05:28:58.672Z,101089.44
2023-05-19T05:32:01.295Z,101088.00
2023-05-19T05:35:06.975Z,101096.88
2023-05-19T05:38:11.652Z,101099.72
2023-05-19T05:41:14.399Z,101100.66
2023-05-19T05:44:16.960Z,101104.63
2023-05-19T05:47:19.972Z,101113.22
2023-05-19T05:50:22.817Z,101111.91
2023-05-19T05:53:26.419Z,101107.78
2023-05-19T05:56:29.248Z,101117.41
2023-05-19T05:59:34.015Z,101115.75
2023-05-19T06:02:37.146Z,101119.88
2023-05-19T06:05:39.842Z,101114.44
2023-05-19T06:08:42.682Z,101125.84
2023-05-19T06:11:45.429Z,101129.31
2023-05-19T06:14:48.035Z,101124.87
2023-05-19T06:17:50.801Z,101135.28
2023-05-19T06:20:53.479Z,101136.09
2023-05-19T06:23:56.110Z,101137.56
2023-05-19T06:26:58.985Z,101145.19
2023-05-19T06:30:01.755Z,101132.47
2023-05-19T06:33:04.433Z,101138.44
2023-05-19T06:36:08.619Z,101141.63
2023-05-19T06:39:11.235Z,101145.28
2023-05-19T06:42:13.922Z,101150.75
2023-05-19T06:45:16.977Z,101155.19
2023-05-19T06:48:19.760Z,101159.66
2023-05-19T06:51:22.551Z,101159.00
2023-05-19T06:54:25.324Z,101161.63
2023-05-19T06:57:27.952Z,101158.84
2023-05-19T07:00:30.664Z,101151.75
2023-05-19T07:03:33.387Z,101158.53
2023-05-19T07:06:36.189Z,101156.38
2023-05-19T07:09:38.907Z,101145.84
2023-05-19T07:12:41.597Z,101147.88
2023-05-19T07:15:44.306Z,101155.47
2023-05-19T07:18:46.989Z,101157.97
2023-05-19T07:21:49.923Z,101153.00
2023-05-19T07:24:52.930Z,101155.81
2023-05-19T07:27:55.514Z,101153.34
2023-05-19T07:30:58.187Z,101157.78
2023-05-19T07:34:00.912Z,101156.94
2023-05-19T07:37:03.814Z,101154.44
2023-05-19T07:40:08.087Z,101159.25
2023-05-19T07:43:11.674Z,101151.97
2023-05-19T07:46:14.326Z,101151.66
2023-05-19T07:49:17.083Z,101149.78
2023-05-19T07:52:19.693Z,101147.25
2023-05-19T07:55:23.426Z,101143.75
2023-05-19T07:58:26.413Z,101145.72
2023-05-19T08:01:30.558Z,101149.25
2023-05-19T08:04:33.315Z,101148.56
2023-05-19T08:07:36.370Z,101155.34
2023-05-19T08:10:39.103Z,101149.72
2023-05-19T08:13:41.855Z,101151.19
2023-05-19T08:16:46.215Z,101148.47
2023-05-19T08:19:48.974Z,101147.31
2023-05-19T08:22:51.844Z,101149.81
2023-05-19T08:25:54.462Z,101145.72
2023-05-19T08:28:57.152Z,101136.62
2023-05-19T08:32:00.488Z,101133.62
2023-05-19T08:35:03.139Z,101129.25
2023-05-19T08:38:05.811Z,101132.03
2023-05-19T08:41:08.891Z,101126.56
2023-05-19T08:44:11.825Z,101124.16
2023-05-19T08:47:14.490Z,101126.19
2023-05-19T08:50:23.020Z,101131.06
2023-05-19T08:56:34.349Z,101123.88
2023-05-19T08:59:37.255Z,101124.87
2023-05-19T09:02:50.477Z,101126.00
2023-05-19T09:06:02.767Z,101120.12
2023-05-19T09:09:06.413Z,101122.47
2023-05-19T09:12:09.399Z,101121.06
2023-05-19T09:15:16.265Z,101115.88
2023-05-19T09:18:18.927Z,101114.81
2023-05-19T09:21:31.419Z,101117.94
2023-05-19T09:24:34.399Z,101113.06
2023-05-19T09:27:37.353Z,101119.69
2023-05-19T09:30:40.026Z,101108.72
2023-05-19T09:33:45.890Z,101111.97
2023-05-19T09:36:53.474Z,101102.75
2023-05-19T09:39:56.681Z,101104.66
2023-05-19T09:42:59.249Z,101112.22
2023-05-19T09:46:13.634Z,101107.19
2023-05-19T09:49:32.964Z,101109.03
2023-05-19T09:52:39.703Z,101101.41
2023-05-19T09:55:42.997Z,101108.88
2023-05-19T09:58:45.886Z,101115.34
2023-05-19T10:01:49.006Z,101108.44
2023-05-19T10:04:52.818Z,101107.75
2023-05-19T10:07:55.998Z,101103.78
2023-05-19T10:10:58.858Z,101104.75
2023-05-19T10:14:01.555Z,101098.37
2023-05-19T10:17:04.388Z,101091.41
2023-05-19T10:20:15.692Z,101086.00
2023-05-19T10:23:18.959Z,101091.72
2023-05-19T10:26:22.018Z,101093.75
2023-05-19T10:29:29.151Z,101078.72
2023-05-19T10:32:32.947Z,101075.97
2023-05-19T10:35:52.875Z,101072.13
2023-05-19T10:39:04.501Z,101071.44
2023-05-19T10:42:19.907Z,101067.56
2023-05-19T10:45:24.455Z,101068.00
2023-05-19T10:48:27.042Z,101062.03
2023-05-19T10:51:32.945Z,101057.22
2023-05-19T10:54:48.637Z,101055.09
2023-05-19T10:57:56.997Z,101060.09
2023-05-19T11:01:03.426Z,101066.91
2023-05-19T11:04:07.116Z,101055.81
2023-05-19T11:07:10.687Z,101058.44
2023-05-19T11:10:13.679Z,101051.00
2023-05-19T11:13:22.680Z,101039.41
2023-05-19T11:16:29.667Z,101045.78
2023-05-19T11:19:34.944Z,101045.66
2023-05-19T11:22:39.004Z,101040.22
2023-05-19T11:25:54.002Z,101044.41
2023-05-19T11:28:57.277Z,101041.56
2023-05-19T11:32:00.992Z,101045.03
2023-05-19T11:35:03.806Z,101048.47
2023-05-19T11:38:07.615Z,101044.81
2023-05-19T11:41:10.152Z,101051.09
2023-05-19T11:44:12.898Z,101043.47
2023-05-19T11:47:17.383Z,101047.28
2023-05-19T11:50:20.824Z,101047.88
2023-05-19T11:53:23.574Z,101041.97
2023-05-19T11:56:26.324Z,101040.66
2023-05-19T11:59:35.592Z,101031.53
2023-05-19T12:02:39.049Z,101039.31
2023-05-19T12:05:45.998Z,101035.03
2023-05-19T12:08:52.050Z,101037.81
2023-05-19T12:11:55.370Z,101026.44
2023-05-19T12:14:58.144Z,101021.16
2023-05-19T12:18:02.371Z,101019.97
2023-05-19T12:21:05.552Z,101022.47
2023-05-19T12:24:09.072Z,101024.31
2023-05-19T12:27:18.449Z,101021.47
2023-05-19T12:30:26.690Z,101017.16
2023-05-19T12:33:29.460Z,101011.34
2023-05-19T12:36:32.535Z,101004.19
2023-05-19T12:39:35.325Z,101010.19
2023-05-19T12:42:38.089Z,101014.81
2023-05-19T12:45:42.801Z,101009.63
2023-05-19T12:48:46.634Z,101003.56
2023-05-19T12:51:53.886Z,101012.69
2023-05-19T12:55:07.902Z,100991.31
2023-05-19T12:58:16.032Z,100994.91
2023-05-19T13:01:19.271Z,100996.37
2023-05-19T13:04:22.137Z,100993.28
2023-05-19T13:07:24.918Z,100988.91
2023-05-19T13:10:28.356Z,100987.06
2023-05-19T13:13:31.135Z,100994.50
2023-05-19T13:16:33.795Z,100988.09
2023-05-19T13:19:36.555Z,100980.13
2023-05-19T13:22:39.263Z,100977.69
2023-05-19T13:25:42.783Z,100968.84
2023-05-19T13:28:45.514Z,100966.63
2023-05-19T13:31:48.242Z,100966.19
2023-05-19T13:34:50.885Z,100968.63
2023-05-19T13:37:53.562Z,100961.44
2023-05-19T13:40:56.171Z,100957.09
2023-05-19T13:44:02.106Z,100958.44
2023-05-19T13:47:05.054Z,100947.78
2023-05-19T13:50:08.234Z,100950.38
2023-05-19T13:53:11.757Z,100943.72
2023-05-19T13:56:14.462Z,100953.28
2023-05-19T13:59:21.796Z,100934.03
2023-05-19T14:02:24.548Z,100934.78
2023-05-19T14:05:29.210Z,100931.87
2023-05-19T14:08:32.602Z,100918.59
2023-05-19T14:11:35.566Z,100910.72
2023-05-19T14:14:38.666Z,100905.91
2023-05-19T14:17:41.510Z,100915.84
2023-05-19T14:20:44.353Z,100909.88
2023-05-19T14:23:47.117Z,100914.47
2023-05-19T14:26:50.090Z,100912.22
2023-05-19T14:29:52.766Z,100910.97
2023-05-19T14:32:56.290Z,100916.03
2023-05-19T14:36:02.283Z,100910.53
2023-05-19T14:39:04.976Z,100910.59
2023-05-19T14:42:07.621Z,100918.91
2023-05-19T14:45:11.042Z,100915.69
2023-05-19T14:48:13.908Z,100918.25
2023-05-19T14:51:16.645Z,100915.88
2023-05-19T14:54:19.298Z,100916.59
2023-05-19T14:57:21.956Z,100922.66
2023-05-19T15:00:27.232Z,100923.16
2023-05-19T15:03:29.887Z,100930.44
2023-05-19T15:06:32.558Z,100924.66
2023-05-19T15:09:35.656Z,100914.19
2023-05-19T15:12:38.616Z,100913.97
2023-05-19T15:15:41.319Z,100910.69
2023-05-19T15:18:44.603Z,100907.91
2023-05-19T15:21:47.312Z,100906.34
2023-05-19T15:24:49.886Z,100903.62
2023-05-19T15:27:52.479Z,100894.16
2023-05-19T15:30:55.706Z,100902.03
2023-05-19T15:33:58.342Z,100891.00
2023-05-19T15:37:01.023Z,100899.19
2023-05-19T15:40:04.631Z,100892.50
2023-05-19T15:43:07.254Z,100891.06
2023-05-19T15:46:10.098Z,100889.97
2023-05-19T15:49:13.125Z,100879.94
2023-05-19T15:52:15.998Z,100882.44
2023-05-19T15:55:18.894Z,100884.94
2023-05-19T15:58:21.753Z,100881.78
2023-05-19T16:01:24.497Z,100878.19
2023-05-19T16:04:27.216Z,100879.94
2023-05-19T16:07:30.024Z,100881.25
2023-05-19T16:10:33.069Z,100873.06
2023-05-19T16:13:36.148Z,100874.03
2023-05-19T16:16:39.030Z,100877.22
2023-05-19T16:19:41.929Z,100869.41
2023-05-19T16:22:44.573Z,100866.75
2023-05-19T16:25:47.830Z,100870.75
2023-05-19T16:28:50.692Z,100871.00
2023-05-19T16:31:53.496Z,100867.63
2023-05-19T16:34:56.291Z,100866.06
2023-05-19T16:37:59.044Z,100868.50
2023-05-19T16:41:01.796Z,100868.97
2023-05-19T16:44:04.604Z,100865.47
2023-05-19T16:47:07.228Z,100855.25
2023-05-19T16:50:10.411Z,100859.44
2023-05-19T16:53:13.212Z,100859.75
2023-05-19T16:56:16.050Z,100861.50
2023-05-19T16:59:18.791Z,100859.38
2023-05-19T17:02:21.546Z,100868.66
2023-05-19T17:05:24.300Z,100867.13
2023-05-19T17:08:27.060Z,100877.34
2023-05-19T17:11:29.718Z,100874.75
2023-05-19T17:14:32.383Z,100869.53
2023-05-19T17:17:35.113Z,100872.94
2023-05-19T17:20:37.789Z,100875.16
2023-05-19T17:23:40.409Z,100877.25
2023-05-19T17:26:43.152Z,100875.47
2023-05-19T17:29:46.057Z,100874.69
2023-05-19T17:32:48.819Z,100881.53
2023-05-19T17:35:51.549Z,100875.28
2023-05-19T17:38:54.259Z,100871.03
2023-05-19T17:41:56.918Z,100870.91
2023-05-19T17:44:59.713Z,100868.53
2023-05-19T17:48:02.583Z,100869.44
2023-05-19T17:51:07.177Z,100871.97
2023-05-19T17:54:10.001Z,100869.34
2023-05-19T17:57:13.480Z,100873.09
2023-05-19T18:00:16.448Z,100874.00
2023-05-19T18:03:19.536Z,100869.97
2023-05-19T18:06:24.566Z,100874.94
2023-05-19T18:09:29.147Z,100868.59
2023-05-19T18:12:31.860Z,100874.59
2023-05-19T18:15:35.023Z,100879.75
2023-05-19T18:18:40.370Z,100876.28
2023-05-19T18:21:43.084Z,100876.88
2023-05-19T18:24:45.835Z,100878.53
2023-05-19T18:27:48.630Z,100881.63
2023-05-19T18:31:01.696Z,100875.47
2023-05-19T18:34:04.719Z,100872.38
2023-05-19T18:37:07.526Z,100866.41
2023-05-19T18:40:10.669Z,100866.41
2023-05-19T18:43:13.425Z,100864.97
2023-05-19T18:46:18.027Z,100876.03
2023-05-19T18:49:21.129Z,100874.75
2023-05-19T18:52:24.416Z,100875.72
2023-05-19T18:55:27.088Z,100878.38
2023-05-19T18:58:29.745Z,100872.62
2023-05-19T19:01:32.640Z,100875.06
2023-05-19T19:04:35.320Z,100879.12
2023-05-19T19:07:41.790Z,100882.41
2023-05-19T19:10:44.520Z,100876.03
2023-05-19T19:13:51.315Z,100872.88
2023-05-19T19:16:54.078Z,100878.16
2023-05-19T19:19:56.934Z,100873.41
2023-05-19T19:22:59.631Z,100880.16
2023-05-19T19:26:02.452Z,100874.16
2023-05-19T19:29:05.187Z,100877.59
2023-05-19T19:32:08.019Z,100881.69
2023-05-19T19:35:11.294Z,100886.47
2023-05-19T19:38:14.167Z,100892.38
2023-05-19T19:41:16.960Z,100895.38
2023-05-19T19:44:19.789Z,100896.53
2023-05-19T19:47:22.483Z,100893.19
2023-05-19T19:50:25.159Z,100892.47
2023-05-19T19:53:27.968Z,100889.13
2023-05-19T19:56:30.589Z,100892.13
2023-05-19T19:59:33.280Z,100893.66
2023-05-19T20:02:40.972Z,100895.59
2023-05-19T20:05:48.371Z,100893.78
2023-05-19T20:08:50.991Z,100888.41
2023-05-19T20:11:54.003Z,100880.81
2023-05-19T20:14:56.868Z,100887.91
2023-05-19T20:17:59.502Z,100884.87
2023-05-19T20:21:02.202Z,100889.66
2023-05-19T20:24:05.026Z,100892.22
2023-05-19T20:27:07.959Z,100883.06
2023-05-19T20:30:10.917Z,100893.12
2023-05-19T20:33:13.805Z,100880.13
2023-05-19T20:36:16.523Z,100881.03
2023-05-19T20:39:19.310Z,100885.41
2023-05-19T20:42:21.915Z,100876.06
2023-05-19T20:45:24.593Z,100876.63
2023-05-19T20:48:27.474Z,100884.47
2023-05-19T20:51:30.318Z,100880.41
2023-05-19T20:54:32.958Z,100882.09
2023-05-19T20:57:35.681Z,100883.81
2023-05-19T21:00:38.402Z,100878.09
2023-05-19T21:03:41.087Z,100878.16
2023-05-19T21:06:43.884Z,100881.03
2023-05-19T21:09:48.220Z,100882.91
2023-05-19T21:12:50.965Z,100885.44
2023-05-19T21:15:53.624Z,100890.63
2023-05-19T21:18:56.461Z,100887.50
2023-05-19T21:21:59.177Z,100883.91
2023-05-19T21:25:01.912Z,100880.94
2023-05-19T21:28:04.882Z,100883.28
2023-05-19T21:31:07.591Z,100883.94
2023-05-19T21:34:10.347Z,100863.66
2023-05-19T21:37:12.953Z,100884.50
2023-05-19T21:40:15.641Z,100878.91
2023-05-19T21:43:18.491Z,100867.37
2023-05-19T21:46:21.266Z,100882.28
2023-05-19T21:49:23.898Z,100876.69
2023-05-19T21:52:26.574Z,100882.78
2023-05-19T21:55:29.208Z,100885.63
2023-05-19T21:58:31.936Z,100879.19
2023-05-19T22:01:34.538Z,100874.25
2023-05-19T22:04:38.734Z,100879.38
2023-05-19T22:07:41.982Z,100878.91
2023-05-19T22:10:44.980Z,100874.94
2023-05-19T22:13:47.623Z,100872.62
2023-05-19T22:16:50.390Z,100873.94
2023-05-19T22:19:53.250Z,100876.75
2023-05-19T22:22:57.010Z,100877.09
2023-05-19T22:25:59.894Z,100868.66
2023-05-19T22:29:03.469Z,100872.97
2023-05-19T22:32:12.266Z,100872.31
2023-05-19T22:35:15.093Z,100872.97
2023-05-19T22:38:17.739Z,100878.91
2023-05-19T22:41:20.369Z,100879.25
2023-05-19T22:44:22.913Z,100880.87
2023-05-19T22:47:25.747Z,100872.13
2023-05-19T22:50:28.357Z,100870.78
2023-05-19T22:53:31.024Z,100865.84
2023-05-19T22:56:33.860Z,100863.84
2023-05-19T22:59:38.427Z,100854.44
2023-05-19T23:02:42.063Z,100850.66
2023-05-19T23:05:44.667Z,100850.31
2023-05-19T23:08:47.593Z,100844.84
2023-05-19T23:11:50.444Z,100840.03
2023-05-19T23:14:53.259Z,100839.88
2023-05-19T23:17:56.022Z,100841.00
2023-05-19T23:20:58.703Z,100839.84
2023-05-19T23:24:01.490Z,100832.91
2023-05-19T23:27:04.141Z,100840.47
2023-05-19T23:30:07.394Z,100831.38
2023-05-19T23:33:10.044Z,100830.22
2023-05-19T23:36:12.863Z,100831.50
2023-05-19T23:39:15.429Z,100836.78
2023-05-19T23:42:18.333Z,100824.91
2023-05-19T23:45:20.923Z,100821.75
2023-05-19T23:48:23.620Z,100826.72
2023-05-19T23:51:26.731Z,100815.50
2023-05-19T23:54:30.430Z,100814.34
2023-05-19T23:57:33.043Z,100814.53
